Time;durP1;ratioP1;P1;durP2;ratioP2;P2;SDS_P1;SDS_P2;PMS_P1;PMS_P2;Temp;Humidity;BMP_temperature;BMP_pressure;BME280_temperature;BME280_humidity;BME280_pressure;Samples;Min_cycle;Max_cycle;Signal;HPM_P1;HPM_P2
2023/03/12 00:02:07;;;;;;;28.33;16.13;;;;;;;-144.87;100.00;61487.56;4985062;28;20030;-78
2023/03/12 00:04:35;;;;;;;32.58;15.07;;;;;;;-144.87;100.00;61487.56;4969469;28;20130;-78
2023/03/12 00:07:02;;;;;;;20.75;13.07;;;;;;;-144.87;100.00;61487.56;4985365;28;20045;-78
2023/03/12 00:09:29;;;;;;;28.20;13.57;;;;;;;-144.87;100.00;61487.56;4984893;28;20063;-78
2023/03/12 00:11:55;;;;;;;32.85;13.52;;;;;;;-144.87;100.00;61487.56;4986133;28;20042;-78
2023/03/12 00:14:21;;;;;;;21.58;11.52;;;;;;;-144.87;100.00;61487.56;4971558;28;20459;-78
2023/03/12 00:16:47;;;;;;;23.83;12.73;;;;;;;-144.87;100.00;61487.56;4990339;28;20142;-78
2023/03/12 00:19:14;;;;;;;27.60;13.57;;;;;;;-144.87;100.00;61487.56;4991632;28;20038;-77
2023/03/12 00:21:40;;;;;;;29.67;14.32;;;;;;;-144.87;100.00;61487.56;4957068;28;20381;-77
2023/03/12 00:24:07;;;;;;;34.47;15.02;;;;;;;-144.87;100.00;61487.56;4987507;28;20042;-78
2023/03/12 00:26:33;;;;;;;36.92;15.63;;;;;;;-144.87;100.00;61487.56;4990036;28;20042;-78
2023/03/12 00:28:59;;;;;;;42.42;19.48;;;;;;;-144.87;100.00;61487.56;4987095;28;20038;-77
2023/03/12 00:31:28;;;;;;;35.13;15.80;;;;;;;-144.87;100.00;61487.56;4988046;28;20034;-77
2023/03/12 00:33:55;;;;;;;33.35;16.02;;;;;;;-144.87;100.00;61487.56;4989376;28;20507;-78
2023/03/12 00:36:24;;;;;;;34.03;15.75;;;;;;;-144.87;100.00;61487.56;4983708;28;20038;-78
2023/03/12 00:38:51;;;;;;;32.60;14.60;;;;;;;-144.87;100.00;61487.56;4972361;28;20069;-79
2023/03/12 00:41:21;;;;;;;28.05;13.27;;;;;;;-144.87;100.00;61487.56;4955961;28;20134;-78
2023/03/12 00:43:48;;;;;;;28.55;12.88;;;;;;;-144.87;100.00;61487.56;4986340;28;20117;-79
2023/03/12 00:46:14;;;;;;;19.88;11.57;;;;;;;-144.87;100.00;61487.56;4967513;28;20043;-78
2023/03/12 00:48:40;;;;;;;22.13;11.48;;;;;;;-144.87;100.00;61487.56;4988046;28;20077;-77
2023/03/12 00:51:07;;;;;;;27.45;12.43;;;;;;;-144.87;100.00;61487.56;4990218;28;20125;-78
2023/03/12 00:53:35;;;;;;;40.13;15.13;;;;;;;-144.87;100.00;61487.56;4974187;28;20042;-79
2023/03/12 00:56:02;;;;;;;32.55;15.13;;;;;;;-144.87;100.00;61487.56;4969251;28;20022;-78
2023/03/12 00:58:28;;;;;;;28.98;14.18;;;;;;;-144.87;100.00;61487.56;4988156;28;20031;-78
2023/03/12 01:00:55;;;;;;;24.92;11.57;;;;;;;-144.87;100.00;61487.56;4988419;28;20045;-77
2023/03/12 01:03:21;;;;;;;19.80;11.85;;;;;;;-144.87;100.00;61487.56;4970125;28;20211;-78
2023/03/12 01:05:52;;;;;;;21.77;10.95;;;;;;;-144.87;100.00;61487.56;4996866;28;20081;-77
2023/03/12 01:08:19;;;;;;;22.55;11.25;;;;;;;-144.87;100.00;61487.56;4985488;28;20050;-77
2023/03/12 01:10:46;;;;;;;21.10;10.35;;;;;;;-144.87;100.00;61487.56;4984687;28;20073;-77
2023/03/12 01:13:12;;;;;;;21.30;10.43;;;;;;;-144.87;100.00;61487.56;4987558;28;20034;-78
2023/03/12 01:15:38;;;;;;;20.30;10.15;;;;;;;-144.87;100.00;61487.56;4990006;28;20129;-77
2023/03/12 01:18:05;;;;;;;17.08;9.95;;;;;;;-144.87;100.00;61487.56;4989624;28;20031;-79
2023/03/12 01:20:34;;;;;;;18.52;10.07;;;;;;;-144.87;100.00;61487.56;4987304;28;20486;-77
2023/03/12 01:23:00;;;;;;;18.58;9.40;;;;;;;-144.87;100.00;61487.56;4979577;28;20518;-77
2023/03/12 01:25:26;;;;;;;22.52;9.40;;;;;;;-144.87;100.00;61487.56;4969981;28;20046;-77
2023/03/12 01:27:53;;;;;;;26.98;9.80;;;;;;;-144.87;100.00;61487.56;4983366;28;20328;-77
2023/03/12 01:30:19;;;;;;;21.25;8.80;;;;;;;-144.87;100.00;61487.56;4985843;28;20113;-78
2023/03/12 01:32:46;;;;;;;16.67;9.13;;;;;;;-144.87;100.00;61487.56;4988011;28;20459;-77
2023/03/12 01:35:12;;;;;;;17.45;9.32;;;;;;;-144.87;100.00;61487.56;4985626;28;20040;-78
2023/03/12 01:37:38;;;;;;;19.40;9.00;;;;;;;-144.87;100.00;61487.56;4987999;28;20050;-78
2023/03/12 01:40:05;;;;;;;15.60;9.13;;;;;;;-144.87;100.00;61487.56;4983097;28;20035;-78
2023/03/12 01:42:31;;;;;;;14.55;8.50;;;;;;;-144.87;100.00;61487.56;4989917;28;20062;-78
2023/03/12 01:45:02;;;;;;;17.48;9.10;;;;;;;-144.87;100.00;61487.56;4986753;28;20096;-81
2023/03/12 01:47:34;;;;;;;14.13;7.65;;;;;;;-144.87;100.00;61487.56;4969998;28;20399;-78
2023/03/12 01:50:06;;;;;;;21.73;9.10;;;;;;;-144.87;100.00;61487.56;4963945;28;20031;-77
2023/03/12 01:52:35;;;;;;;18.00;8.80;;;;;;;-144.87;100.00;61487.56;4955130;28;20381;-78
2023/03/12 01:55:10;;;;;;;17.08;9.00;;;;;;;-144.87;100.00;61487.56;4970303;28;20023;-78
2023/03/12 01:57:48;;;;;;;14.35;8.77;;;;;;;-144.87;100.00;61487.56;4971883;28;20504;-78
2023/03/12 02:00:18;;;;;;;14.48;8.57;;;;;;;-144.87;100.00;61487.56;4970094;28;20038;-78
2023/03/12 02:02:45;;;;;;;;;;;;;;;-144.87;100.00;61487.56;4993695;28;20547;-77
2023/03/12 02:05:42;;;;;;;23.80;8.65;;;;;;;-144.87;100.00;61487.56;4983467;28;20290;-77
2023/03/12 02:08:10;;;;;;;13.32;7.78;;;;;;;-144.87;100.00;61487.56;4966535;28;20027;-77
2023/03/12 02:10:36;;;;;;;16.42;7.63;;;;;;;-144.87;100.00;61487.56;4965765;28;20109;-78
2023/03/12 02:13:03;;;;;;;19.17;7.85;;;;;;;-144.87;100.00;61487.56;4969417;28;20041;-78
2023/03/12 02:15:29;;;;;;;17.23;7.72;;;;;;;-144.87;100.00;61487.56;4952696;28;20066;-77
2023/03/12 02:17:56;;;;;;;16.08;7.80;;;;;;;-144.87;100.00;61487.56;4970882;28;20151;-78
2023/03/12 02:20:42;;;;;;;17.98;7.68;;;;;;;-144.87;100.00;61487.56;4985323;28;20052;-77
2023/03/12 02:23:30;;;;;;;25.25;11.10;;;;;;;-144.87;100.00;61487.56;4987251;28;20161;-76
2023/03/12 02:25:58;;;;;;;18.00;8.93;;;;;;;-144.87;100.00;61487.56;4978562;28;20025;-77
2023/03/12 02:28:27;;;;;;;35.92;14.57;;;;;;;-144.87;100.00;61487.56;4985987;28;20034;-77
2023/03/12 02:30:59;;;;;;;23.55;10.05;;;;;;;-144.87;100.00;61487.56;4985777;28;20121;-77
2023/03/12 02:33:26;;;;;;;17.98;8.63;;;;;;;-144.87;100.00;61487.56;4960227;28;20044;-77
2023/03/12 02:35:53;;;;;;;16.90;8.85;;;;;;;-144.87;100.00;61487.56;4954111;28;20050;-79
2023/03/12 02:38:31;;;;;;;21.60;13.63;;;;;;;-144.87;100.00;61487.56;4968717;28;20050;-77
2023/03/12 02:41:04;;;;;;;35.17;18.45;;;;;;;-144.87;100.00;61487.56;4985107;28;20042;-79
2023/03/12 02:43:30;;;;;;;22.73;13.70;;;;;;;-144.87;100.00;61487.56;4979911;28;20034;-77
2023/03/12 02:45:56;;;;;;;17.42;10.85;;;;;;;-144.87;100.00;61487.56;4985453;28;20030;-77
2023/03/12 02:48:22;;;;;;;17.00;9.15;;;;;;;-144.87;100.00;61487.56;4982817;28;20101;-78
2023/03/12 02:50:49;;;;;;;21.02;8.10;;;;;;;-144.87;100.00;61487.56;4987490;28;20038;-77
2023/03/12 02:53:15;;;;;;;13.68;7.32;;;;;;;-144.87;100.00;61487.56;4953733;28;20042;-78
2023/03/12 02:55:41;;;;;;;15.15;7.22;;;;;;;-144.87;100.00;61487.56;4967718;28;20038;-78
2023/03/12 02:58:08;;;;;;;14.77;7.90;;;;;;;-144.87;100.00;61487.56;4983299;28;20034;-78
2023/03/12 03:00:34;;;;;;;15.77;7.80;;;;;;;-144.87;100.00;61487.56;4988117;28;20124;-78
2023/03/12 03:03:04;;;;;;;17.80;7.53;;;;;;;-144.87;100.00;61487.56;4965855;28;20034;-78
2023/03/12 03:05:30;;;;;;;13.80;7.05;;;;;;;-144.87;100.00;61487.56;4987741;28;20039;-78
2023/03/12 03:07:57;;;;;;;15.98;8.02;;;;;;;-144.87;100.00;61487.56;4984535;28;20586;-77
2023/03/12 03:10:23;;;;;;;13.82;7.07;;;;;;;-144.87;100.00;61487.56;4986357;28;20743;-78
2023/03/12 03:12:50;;;;;;;14.68;7.32;;;;;;;-144.87;100.00;61487.56;4988146;28;20443;-78
2023/03/12 03:15:16;;;;;;;14.60;7.55;;;;;;;-144.87;100.00;61487.56;4979281;28;20085;-79
2023/03/12 03:17:43;;;;;;;12.48;7.47;;;;;;;-144.87;100.00;61487.56;4968664;28;20045;-78
2023/03/12 03:20:10;;;;;;;20.73;7.60;;;;;;;-144.87;100.00;61487.56;4986460;28;20037;-78
2023/03/12 03:22:38;;;;;;;11.02;6.78;;;;;;;-144.87;100.00;61487.56;4983188;28;20050;-76
2023/03/12 03:25:05;;;;;;;14.65;7.28;;;;;;;-144.87;100.00;61487.56;4969147;28;20476;-79
2023/03/12 03:27:35;;;;;;;12.63;7.03;;;;;;;-144.87;100.00;61487.56;4983611;28;20096;-78
2023/03/12 03:30:02;;;;;;;11.40;6.50;;;;;;;-144.87;100.00;61487.56;4981760;28;20030;-77
2023/03/12 03:32:31;;;;;;;17.15;6.40;;;;;;;-144.87;100.00;61487.56;4952487;28;20026;-78
2023/03/12 03:34:57;;;;;;;15.13;8.35;;;;;;;-144.87;100.00;61487.56;4966890;28;20046;-79
2023/03/12 03:37:24;;;;;;;11.90;6.30;;;;;;;-144.87;100.00;61487.56;4966718;28;20034;-78
2023/03/12 03:39:50;;;;;;;16.88;6.60;;;;;;;-144.87;100.00;61487.56;4970322;28;20044;-78
2023/03/12 03:42:17;;;;;;;13.63;6.38;;;;;;;-144.87;100.00;61487.56;4985132;28;20101;-76
2023/03/12 03:44:43;;;;;;;12.23;5.95;;;;;;;-144.87;100.00;61487.56;4968282;28;20030;-77
2023/03/12 03:47:10;;;;;;;16.00;7.05;;;;;;;-144.87;100.00;61487.56;4984883;28;20038;-78
2023/03/12 03:49:36;;;;;;;16.33;6.30;;;;;;;-144.87;100.00;61487.56;4984497;28;20133;-77
2023/03/12 03:52:05;;;;;;;9.43;5.97;;;;;;;-144.87;100.00;61487.56;4981168;28;20519;-77
2023/03/12 03:54:34;;;;;;;14.38;6.72;;;;;;;-144.87;100.00;61487.56;4978754;28;20030;-77
2023/03/12 03:57:02;;;;;;;11.20;5.80;;;;;;;-144.87;100.00;61487.56;4984890;28;20495;-78
2023/03/12 03:59:28;;;;;;;13.30;6.88;;;;;;;-144.87;100.00;61487.56;4986049;28;20049;-76
2023/03/12 04:01:56;;;;;;;11.98;7.22;;;;;;;-144.87;100.00;61487.56;4985961;28;20543;-76
2023/03/12 04:04:23;;;;;;;13.50;6.63;;;;;;;-144.87;100.00;61487.56;4968700;28;20057;-78
2023/03/12 04:06:49;;;;;;;15.45;6.90;;;;;;;-144.87;100.00;61487.56;4970304;28;20039;-77
2023/03/12 04:09:16;;;;;;;14.60;7.43;;;;;;;-144.87;100.00;61487.56;4984093;28;20043;-78
2023/03/12 04:11:42;;;;;;;18.35;6.57;;;;;;;-144.87;100.00;61487.56;4980647;28;20038;-78
2023/03/12 04:14:11;;;;;;;16.77;6.60;;;;;;;-144.87;100.00;61487.56;4983788;28;20105;-80
2023/03/12 04:16:40;;;;;;;18.83;7.30;;;;;;;-144.87;100.00;61487.56;4985694;28;20041;-78
2023/03/12 04:19:06;;;;;;;15.63;6.57;;;;;;;-144.87;100.00;61487.56;4981845;28;20030;-78
2023/03/12 04:21:33;;;;;;;16.40;6.93;;;;;;;-144.87;100.00;61487.56;4984730;28;20546;-78
2023/03/12 04:23:59;;;;;;;15.15;6.93;;;;;;;-144.87;100.00;61487.56;4984678;28;20065;-78
2023/03/12 04:26:30;;;;;;;14.45;5.28;;;;;;;-144.87;100.00;61487.56;4966539;28;20037;-78
2023/03/12 04:28:56;;;;;;;9.63;6.15;;;;;;;-144.87;100.00;61487.56;4983115;28;20049;-77
2023/03/12 04:31:25;;;;;;;14.95;6.93;;;;;;;-144.87;100.00;61487.56;4970324;28;20069;-78
2023/03/12 04:33:51;;;;;;;14.65;6.57;;;;;;;-144.87;100.00;61487.56;4984424;28;20038;-78
2023/03/12 04:36:19;;;;;;;14.82;6.45;;;;;;;-144.87;100.00;61487.56;4979964;28;20039;-77
2023/03/12 04:38:48;;;;;;;14.98;6.93;;;;;;;-144.87;100.00;61487.56;4965281;28;20046;-78
2023/03/12 04:41:17;;;;;;;14.05;6.93;;;;;;;-144.87;100.00;61487.56;4954650;28;20053;-77
2023/03/12 04:43:58;;;;;;;11.98;6.80;;;;;;;-144.87;100.00;61487.56;4985622;28;20038;-77
2023/03/12 04:46:25;;;;;;;14.50;7.13;;;;;;;-144.87;100.00;61487.56;4986126;28;20558;-78
2023/03/12 04:48:52;;;;;;;16.05;6.70;;;;;;;-144.87;100.00;61487.56;4968369;28;20044;-78
2023/03/12 04:51:19;;;;;;;16.30;6.97;;;;;;;-144.87;100.00;61487.56;4985113;28;20049;-77
2023/03/12 04:53:46;;;;;;;20.02;6.78;;;;;;;-144.87;100.00;61487.56;4983356;28;20034;-77
2023/03/12 04:56:14;;;;;;;18.33;7.65;;;;;;;-144.87;100.00;61487.56;4990832;28;20034;-77
2023/03/12 04:58:42;;;;;;;17.05;7.03;;;;;;;-144.87;100.00;61487.56;4992342;28;20104;-77
2023/03/12 05:01:22;;;;;;;16.38;6.82;;;;;;;-144.87;100.00;61487.56;4988734;28;20034;-79
2023/03/12 05:03:49;;;;;;;20.08;7.20;;;;;;;-144.87;100.00;61487.56;4964750;28;20049;-77
2023/03/12 05:06:15;;;;;;;12.60;7.53;;;;;;;-144.87;100.00;61487.56;4972269;28;20042;-77
2023/03/12 05:08:41;;;;;;;15.00;7.53;;;;;;;-144.87;100.00;61487.56;5018204;28;20038;-77
2023/03/12 05:11:08;;;;;;;13.52;7.50;;;;;;;-144.87;100.00;61487.56;4990215;28;20042;-78
2023/03/12 05:13:34;;;;;;;18.88;8.75;;;;;;;-144.87;100.00;61487.56;4984088;28;20027;-77
2023/03/12 05:16:00;;;;;;;15.82;8.10;;;;;;;-144.87;100.00;61487.56;4988977;28;20035;-77
2023/03/12 05:18:27;;;;;;;18.92;8.68;;;;;;;-144.87;100.00;61487.56;4986175;28;20498;-77
2023/03/12 05:21:02;;;;;;;12.77;6.93;;;;;;;-144.87;100.00;61487.56;4971992;28;20045;-77
2023/03/12 05:23:29;;;;;;;15.88;7.47;;;;;;;-144.87;100.00;61487.56;5000570;28;20082;-78
2023/03/12 05:25:57;;;;;;;17.30;7.80;;;;;;;-144.87;100.00;61487.56;4985430;28;20980;-78
2023/03/12 05:28:27;;;;;;;17.25;8.57;;;;;;;-144.87;100.00;61487.56;4968731;28;20034;-77
2023/03/12 05:30:55;;;;;;;19.58;8.15;;;;;;;-144.87;100.00;61487.56;4971879;28;20026;-77
2023/03/12 05:33:23;;;;;;;16.05;7.88;;;;;;;-144.87;100.00;61487.56;4987528;28;20042;-78
2023/03/12 05:35:49;;;;;;;11.65;8.25;;;;;;;-144.87;100.00;61487.56;4987121;28;20048;-78
2023/03/12 05:38:16;;;;;;;20.02;8.70;;;;;;;-144.87;100.00;61487.56;4987438;28;20046;-78
2023/03/12 05:40:49;;;;;;;18.10;8.38;;;;;;;-144.87;100.00;61487.56;4988772;28;20068;-78
2023/03/12 05:43:16;;;;;;;16.45;9.27;;;;;;;-144.87;100.00;61487.56;4988784;28;20410;-78
2023/03/12 05:45:42;;;;;;;14.43;8.30;;;;;;;-144.87;100.00;61487.56;4970291;28;20038;-78
2023/03/12 05:48:08;;;;;;;20.83;8.70;;;;;;;-144.87;100.00;61487.56;4985512;28;20039;-78
2023/03/12 05:50:35;;;;;;;16.40;9.05;;;;;;;-144.87;100.00;61487.56;4989418;28;20042;-78
2023/03/12 05:53:01;;;;;;;14.00;8.27;;;;;;;-144.87;100.00;61487.56;4969284;28;20038;-77
2023/03/12 05:55:28;;;;;;;19.35;8.85;;;;;;;-144.87;100.00;61487.56;4972778;28;20039;-78
2023/03/12 05:57:55;;;;;;;18.55;9.18;;;;;;;-144.87;100.00;61487.56;4985917;28;20030;-78
2023/03/12 06:00:21;;;;;;;18.67;9.13;;;;;;;-144.87;100.00;61487.56;4965185;28;20053;-78
2023/03/12 06:02:54;;;;;;;17.63;9.55;;;;;;;-144.87;100.00;61487.56;5001735;28;20089;-78
2023/03/12 06:05:20;;;;;;;20.40;9.85;;;;;;;-144.87;100.00;61487.56;4971564;28;20419;-77
2023/03/12 06:07:47;;;;;;;20.95;10.25;;;;;;;-144.87;100.00;61487.56;4970314;28;20093;-77
2023/03/12 06:10:14;;;;;;;21.35;10.05;;;;;;;-144.87;100.00;61487.56;4987613;28;20054;-78
2023/03/12 06:12:40;;;;;;;20.67;9.70;;;;;;;-144.87;100.00;61487.56;4981534;28;20033;-77
2023/03/12 06:15:07;;;;;;;18.52;9.75;;;;;;;-144.87;100.00;61487.56;4985392;28;20034;-77
2023/03/12 06:17:33;;;;;;;16.23;9.02;;;;;;;-144.87;100.00;61487.56;4970162;28;20125;-79
2023/03/12 06:20:00;;;;;;;21.27;9.30;;;;;;;-144.87;100.00;61487.56;4970883;28;20034;-78
2023/03/12 06:22:27;;;;;;;20.45;10.20;;;;;;;-144.87;100.00;61487.56;4985540;28;20031;-79
2023/03/12 06:24:54;;;;;;;14.35;9.32;;;;;;;-144.87;100.00;61487.56;4986176;28;20057;-78
2023/03/12 06:27:20;;;;;;;21.25;11.05;;;;;;;-144.87;100.00;61487.56;4969143;28;20058;-77
2023/03/12 06:29:47;;;;;;;28.77;10.95;;;;;;;-144.87;100.00;61487.56;4987087;28;20030;-78
2023/03/12 06:32:13;;;;;;;27.27;11.75;;;;;;;-144.87;100.00;61487.56;4985415;28;20129;-77
2023/03/12 06:34:40;;;;;;;25.27;12.05;;;;;;;-144.87;100.00;61487.56;4984656;28;20492;-78
2023/03/12 06:37:06;;;;;;;26.65;13.05;;;;;;;-144.87;100.00;61487.56;4989099;28;20037;-77
2023/03/12 06:39:35;;;;;;;22.52;12.63;;;;;;;-144.87;100.00;61487.56;5008461;28;20042;-78
2023/03/12 06:42:02;;;;;;;27.55;13.05;;;;;;;-144.87;100.00;61487.56;4988321;28;20040;-77
2023/03/12 06:44:28;;;;;;;26.20;13.75;;;;;;;-144.87;100.00;61487.56;4972784;28;20039;-77
2023/03/12 06:46:54;;;;;;;30.95;14.48;;;;;;;-144.87;100.00;61487.56;4987495;28;20085;-78
2023/03/12 06:49:22;;;;;;;28.10;14.75;;;;;;;-144.87;100.00;61487.56;4990758;28;20083;-78
2023/03/12 06:51:50;;;;;;;31.70;15.68;;;;;;;-144.87;100.00;61487.56;4989325;28;20040;-78
2023/03/12 06:54:16;;;;;;;30.75;16.40;;;;;;;-144.87;100.00;61487.56;5006800;28;20081;-79
2023/03/12 06:56:42;;;;;;;35.00;17.20;;;;;;;-144.87;100.00;61487.56;5004808;28;20550;-77
2023/03/12 06:59:09;;;;;;;33.78;17.52;;;;;;;-144.87;100.00;61487.56;5005453;28;20419;-77
2023/03/12 07:01:35;;;;;;;33.80;18.65;;;;;;;-144.87;100.00;61487.56;4989700;28;20384;-78
2023/03/12 07:04:01;;;;;;;31.30;18.63;;;;;;;-144.87;100.00;61487.56;4962084;28;20026;-77
2023/03/12 07:06:28;;;;;;;34.75;19.85;;;;;;;-144.87;100.00;61487.56;4989439;28;20088;-77
2023/03/12 07:08:54;;;;;;;34.88;19.75;;;;;;;-144.87;100.00;61487.56;5008234;28;20030;-77
2023/03/12 07:11:20;;;;;;;31.77;19.98;;;;;;;-144.87;100.00;61487.56;4988972;28;20495;-77
2023/03/12 07:13:46;;;;;;;33.60;19.77;;;;;;;-144.87;100.00;61487.56;5006998;28;20069;-77
2023/03/12 07:16:13;;;;;;;32.28;19.20;;;;;;;-144.87;100.00;61487.56;4970943;28;20046;-76
2023/03/12 07:18:41;;;;;;;35.55;19.42;;;;;;;-144.87;100.00;61487.56;5004584;28;20411;-77
2023/03/12 07:21:07;;;;;;;37.13;20.20;;;;;;;-144.87;100.00;61487.56;5006949;28;20045;-77
2023/03/12 07:23:33;;;;;;;35.95;20.33;;;;;;;-144.87;100.00;61487.56;4989410;28;20133;-77
2023/03/12 07:25:59;;;;;;;36.25;21.83;;;;;;;-144.87;100.00;61487.56;4985890;28;20034;-78
2023/03/12 07:28:26;;;;;;;40.38;20.98;;;;;;;-144.87;100.00;61487.56;4971459;28;20084;-77
2023/03/12 07:30:52;;;;;;;34.85;21.02;;;;;;;-144.87;100.00;61487.56;5002369;28;20120;-77
2023/03/12 07:33:20;;;;;;;36.65;21.38;;;;;;;-144.87;100.00;61487.56;5004079;28;20070;-77
2023/03/12 07:35:48;;;;;;;37.50;20.65;;;;;;;-144.87;100.00;61487.56;4987289;28;20049;-79
2023/03/12 07:38:14;;;;;;;36.72;22.08;;;;;;;-144.87;100.00;61487.56;4979936;28;20046;-78
2023/03/12 07:40:41;;;;;;;44.22;21.92;;;;;;;-144.87;100.00;61487.56;5003999;28;20030;-77
2023/03/12 07:43:10;;;;;;;38.85;23.08;;;;;;;-144.87;100.00;61487.56;4984394;28;20195;-80
2023/03/12 07:45:39;;;;;;;39.40;22.75;;;;;;;-144.87;100.00;61487.56;4988543;28;20041;-79
2023/03/12 07:48:06;;;;;;;45.08;24.02;;;;;;;-144.87;100.00;61487.56;4986965;28;20061;-79
2023/03/12 07:50:33;;;;;;;38.97;24.60;;;;;;;-144.87;100.00;61487.56;4986472;28;20022;-78
2023/03/12 07:53:00;;;;;;;40.42;24.70;;;;;;;-144.87;100.00;61487.56;4973423;28;20205;-78
2023/03/12 07:55:26;;;;;;;44.33;25.95;;;;;;;-144.87;100.00;61487.56;4985759;28;20583;-77
2023/03/12 07:57:55;;;;;;;45.58;26.73;;;;;;;-144.87;100.00;61487.56;4986386;28;20037;-76
2023/03/12 08:00:22;;;;;;;50.70;25.98;;;;;;;-144.87;100.00;61487.56;4986780;28;20030;-77
2023/03/12 08:02:48;;;;;;;55.05;26.98;;;;;;;-144.87;100.00;61487.56;4985804;28;20033;-77
2023/03/12 08:05:14;;;;;;;47.70;27.85;;;;;;;-144.87;100.00;61487.56;5005004;28;20058;-77
2023/03/12 08:07:40;;;;;;;60.25;29.65;;;;;;;-144.87;100.00;61487.56;4972675;28;20034;-76
2023/03/12 08:10:08;;;;;;;46.22;27.45;;;;;;;-144.87;100.00;61487.56;4983479;28;20040;-80
2023/03/12 08:12:36;;;;;;;54.17;27.70;;;;;;;-144.87;100.00;61487.56;4985410;28;20033;-78
2023/03/12 08:15:04;;;;;;;46.83;27.63;;;;;;;-144.87;100.00;61487.56;4978135;28;20107;-77
2023/03/12 08:17:30;;;;;;;49.20;28.88;;;;;;;-144.87;100.00;61487.56;5005036;28;20065;-77
2023/03/12 08:19:57;;;;;;;50.80;29.08;;;;;;;-144.87;100.00;61487.56;4987643;28;20033;-79
2023/03/12 08:22:23;;;;;;;53.97;28.75;;;;;;;-144.87;100.00;61487.56;5002659;28;20037;-79
2023/03/12 08:24:49;;;;;;;52.17;28.17;;;;;;;-144.87;100.00;61487.56;5005081;28;20061;-78
2023/03/12 08:27:15;;;;;;;50.65;27.85;;;;;;;-144.87;100.00;61487.56;5005387;28;20058;-79
2023/03/12 08:29:42;;;;;;;53.20;29.67;;;;;;;-144.87;100.00;61487.56;4970276;28;20042;-79
2023/03/12 08:32:09;;;;;;;61.78;29.17;;;;;;;-144.87;100.00;61487.56;4987699;28;20058;-79
2023/03/12 08:34:36;;;;;;;53.03;29.45;;;;;;;-144.87;100.00;61487.56;4991861;28;20038;-79
2023/03/12 08:37:04;;;;;;;55.13;28.45;;;;;;;-144.87;100.00;61487.56;4989960;28;20627;-80
2023/03/12 08:39:31;;;;;;;50.83;28.05;;;;;;;-144.87;100.00;61487.56;4985448;28;20062;-81
2023/03/12 08:42:00;;;;;;;54.75;29.02;;;;;;;-144.87;100.00;61487.56;4955033;28;20037;-84
2023/03/12 08:44:26;;;;;;;55.70;28.88;;;;;;;-144.87;100.00;61487.56;4975106;28;20038;-81
2023/03/12 08:46:53;;;;;;;51.72;30.48;;;;;;;-144.87;100.00;61487.56;4988762;28;20085;-79
2023/03/12 08:49:20;;;;;;;55.20;30.83;;;;;;;-144.87;100.00;61487.56;4987037;28;20443;-82
2023/03/12 08:51:48;;;;;;;62.97;31.85;;;;;;;-144.87;100.00;61487.56;4959686;28;20045;-86
2023/03/12 08:54:14;;;;;;;55.25;30.85;;;;;;;-144.87;100.00;61487.56;4963340;28;20033;-81
2023/03/12 08:56:45;;;;;;;61.70;33.92;;;;;;;-144.87;100.00;61487.56;4988998;28;20026;-82
2023/03/12 08:59:11;;;;;;;;;;;;;;;-144.87;100.00;61487.56;4986462;28;20518;-82
2023/03/12 09:01:39;;;;;;;58.05;30.15;;;;;;;-144.87;100.00;61487.56;4989555;28;20394;-82
2023/03/12 09:04:06;;;;;;;62.50;32.17;;;;;;;-144.87;100.00;61487.56;5003472;28;20675;-80
2023/03/12 09:06:34;;;;;;;58.10;32.28;;;;;;;-144.87;100.00;61487.56;5009485;28;20669;-81
2023/03/12 09:09:03;;;;;;;60.92;33.28;;;;;;;-144.87;100.00;61487.56;4984931;28;20116;-83
2023/03/12 09:11:32;;;;;;;64.13;33.90;;;;;;;-144.87;100.00;61487.56;5001472;28;20042;-78
2023/03/12 09:13:59;;;;;;;69.38;34.38;;;;;;;-144.87;100.00;61487.56;4982874;28;20710;-79
2023/03/12 09:16:25;;;;;;;66.75;34.90;;;;;;;-144.87;100.00;61487.56;4989282;28;20029;-81
2023/03/12 09:18:51;;;;;;;71.75;35.97;;;;;;;-144.87;100.00;61487.56;4958167;28;20042;-81
2023/03/12 09:21:18;;;;;;;71.90;35.28;;;;;;;-144.87;100.00;61487.56;4972880;28;20487;-82
2023/03/12 09:23:44;;;;;;;74.93;36.10;;;;;;;-144.87;100.00;61487.56;4990763;28;20034;-81
2023/03/12 09:26:11;;;;;;;74.93;37.15;;;;;;;-144.87;100.00;61487.56;4981299;28;20076;-82
2023/03/12 09:28:37;;;;;;;74.07;37.33;;;;;;;-144.87;100.00;61487.56;5007320;28;20044;-81
2023/03/12 09:31:04;;;;;;;69.07;35.33;;;;;;;-144.87;100.00;61487.56;5007084;28;20068;-81
2023/03/12 09:33:34;;;;;;;74.10;37.88;;;;;;;-144.87;100.00;61487.56;4971787;28;20030;-82
2023/03/12 09:36:01;;;;;;;70.70;36.42;;;;;;;-144.87;100.00;61487.56;5003453;28;20116;-80
2023/03/12 09:38:30;;;;;;;73.25;38.45;;;;;;;-144.87;100.00;61487.56;4974321;28;20046;-80
2023/03/12 09:40:58;;;;;;;70.57;37.17;;;;;;;-144.87;100.00;61487.56;4984434;28;20089;-81
2023/03/12 09:43:57;;;;;;;67.45;36.22;;;;;;;-144.87;100.00;61487.56;4984442;28;20034;-80
2023/03/12 09:46:28;;;;;;;67.97;35.30;;;;;;;-144.87;100.00;61487.56;4985308;28;20144;-81
2023/03/12 09:48:57;;;;;;;65.30;34.33;;;;;;;-144.87;100.00;61487.56;4985956;28;20029;-83
2023/03/12 09:51:38;;;;;;;67.40;34.80;;;;;;;-144.87;100.00;61487.56;4972848;28;20030;-82
2023/03/12 09:54:07;;;;;;;66.30;35.85;;;;;;;-144.87;100.00;61487.56;4983641;28;20059;-88
2023/03/12 09:56:34;;;;;;;64.63;35.92;;;;;;;-144.87;100.00;61487.56;4980370;28;20038;-80
2023/03/12 09:59:04;;;;;;;64.90;34.65;;;;;;;-144.87;100.00;61487.56;4985989;28;20510;-80
2023/03/12 10:01:51;;;;;;;71.28;37.75;;;;;;;-144.87;100.00;61487.56;5002219;28;20124;-82
2023/03/12 10:04:44;;;;;;;71.18;37.67;;;;;;;-144.87;100.00;61487.56;4987744;28;20111;-79
2023/03/12 10:07:18;;;;;;;75.28;36.95;;;;;;;-144.87;100.00;61487.56;4990429;28;20041;-79
2023/03/12 10:10:06;;;;;;;68.63;35.65;;;;;;;-144.87;100.00;61487.56;4973106;28;20057;-80
2023/03/12 10:12:54;;;;;;;68.63;37.10;;;;;;;-144.87;100.00;61487.56;5004998;28;20038;-80
2023/03/12 10:15:48;;;;;;;68.45;36.80;;;;;;;-144.87;100.00;61487.56;4986383;28;20053;-84
2023/03/12 10:19:08;;;;;;;68.60;36.10;;;;;;;-144.87;100.00;61487.56;4986913;28;20041;-84
2023/03/12 10:22:07;;;;;;;67.53;37.22;;;;;;;-144.87;100.00;61487.56;4894157;29;20032;-81
2023/03/12 10:24:59;;;;;;;64.32;34.67;;;;;;;-144.87;100.00;61487.56;4866565;29;20051;-81
2023/03/12 10:27:27;;;;;;;67.65;37.65;;;;;;;-144.87;100.00;61487.56;4994327;28;20123;-84
2023/03/12 10:29:54;;;;;;;65.30;34.70;;;;;;;-144.87;100.00;61487.56;4988092;28;20060;-83
2023/03/12 10:32:40;;;;;;;59.08;33.38;;;;;;;-144.87;100.00;61487.56;4972788;28;20483;-79
2023/03/12 10:35:21;;;;;;;56.78;32.47;;;;;;;-144.87;100.00;61487.56;4986117;28;20025;-81
2023/03/12 10:37:58;;;;;;;59.13;32.70;;;;;;;-144.87;100.00;61487.56;4986760;28;20076;-77
2023/03/12 10:40:27;;;;;;;55.80;31.00;;;;;;;-144.87;100.00;61487.56;5004055;28;20155;-82
2023/03/12 10:42:53;;;;;;;52.22;30.42;;;;;;;-144.87;100.00;61487.56;4973067;28;20030;-81
2023/03/12 10:45:27;;;;;;;53.20;30.02;;;;;;;-144.87;100.00;61487.56;5006596;28;20030;-82
2023/03/12 10:48:06;;;;;;;54.90;28.60;;;;;;;-144.87;100.00;61487.56;5004273;28;20042;-85
2023/03/12 10:50:37;;;;;;;47.92;26.80;;;;;;;-144.87;100.00;61487.56;5003399;28;20038;-84
2023/03/12 10:53:31;;;;;;;52.97;26.65;;;;;;;-144.87;100.00;61487.56;4998125;28;20045;-82
2023/03/12 10:56:16;;;;;;;57.67;25.08;;;;;;;-144.87;100.00;61487.56;4963373;28;20045;-84
2023/03/12 10:58:44;;;;;;;56.70;25.25;;;;;;;-144.87;100.00;61487.56;4999797;28;20034;-82
2023/03/12 11:01:17;;;;;;;58.33;25.30;;;;;;;-144.87;100.00;61487.56;4983729;28;20114;-82
2023/03/12 11:03:44;;;;;;;49.65;22.95;;;;;;;-144.87;100.00;61487.56;4977464;28;20038;-80
2023/03/12 11:06:21;;;;;;;57.78;24.10;;;;;;;-144.87;100.00;61487.56;4973407;28;20044;-86